sensor_id;sensor_type;location;lat;lon;timestamp;temperature;humidity
29413;DHT22;16389;50.126;8.450;2023-03-01T00:01:07;0.90;99.90
29413;DHT22;16389;50.126;8.450;2023-03-01T00:03:34;0.90;99.90
29413;DHT22;16389;50.126;8.450;2023-03-01T00:06:00;1.00;99.90
29413;DHT22;16389;50.126;8.450;2023-03-01T00:08:27;1.00;99.90
29413;DHT22;16389;50.126;8.450;2023-03-01T00:11:10;0.90;99.90
29413;DHT22;16389;50.126;8.450;2023-03-01T00:13:37;1.00;99.90
29413;DHT22;16389;50.126;8.450;2023-03-01T00:16:08;1.00;99.90
29413;DHT22;16389;50.126;8.450;2023-03-01T00:18:34;1.00;99.90
29413;DHT22;16389;50.126;8.450;2023-03-01T00:21:00;1.00;99.90
29413;DHT22;16389;50.126;8.450;2023-03-01T00:23:26;1.00;99.90
29413;DHT22;16389;50.126;8.450;2023-03-01T00:25:53;1.00;99.90
29413;DHT22;16389;50.126;8.450;2023-03-01T00:28:19;1.10;99.90
29413;DHT22;16389;50.126;8.450;2023-03-01T00:30:45;1.10;99.90
29413;DHT22;16389;50.126;8.450;2023-03-01T00:33:11;1.10;99.90
29413;DHT22;16389;50.126;8.450;2023-03-01T00:35:36;1.00;99.90
29413;DHT22;16389;50.126;8.450;2023-03-01T00:38:02;1.10;99.90
29413;DHT22;16389;50.126;8.450;2023-03-01T00:40:32;1.10;99.90
29413;DHT22;16389;50.126;8.450;2023-03-01T00:42:58;1.10;99.90
29413;DHT22;16389;50.126;8.450;2023-03-01T00:45:24;1.10;99.90
29413;DHT22;16389;50.126;8.450;2023-03-01T00:47:50;1.00;99.90
29413;DHT22;16389;50.126;8.450;2023-03-01T00:50:16;1.10;99.90
29413;DHT22;16389;50.126;8.450;2023-03-01T00:52:42;1.10;99.90
29413;DHT22;16389;50.126;8.450;2023-03-01T00:55:08;1.00;99.90
29413;DHT22;16389;50.126;8.450;2023-03-01T00:57:34;1.00;99.90
29413;DHT22;16389;50.126;8.450;2023-03-01T01:00:00;0.90;99.90
29413;DHT22;16389;50.126;8.450;2023-03-01T01:02:26;0.90;99.90
29413;DHT22;16389;50.126;8.450;2023-03-01T01:04:51;0.90;99.90
29413;DHT22;16389;50.126;8.450;2023-03-01T01:07:17;0.90;99.90
29413;DHT22;16389;50.126;8.450;2023-03-01T01:09:43;0.90;99.90
29413;DHT22;16389;50.126;8.450;2023-03-01T01:12:09;0.80;99.90
29413;DHT22;16389;50.126;8.450;2023-03-01T01:14:35;0.80;99.90
29413;DHT22;16389;50.126;8.450;2023-03-01T01:17:01;0.90;99.90
29413;DHT22;16389;50.126;8.450;2023-03-01T01:19:26;0.90;99.90
29413;DHT22;16389;50.126;8.450;2023-03-01T01:21:52;0.80;99.90
29413;DHT22;16389;50.126;8.450;2023-03-01T01:24:18;0.80;99.90
29413;DHT22;16389;50.126;8.450;2023-03-01T01:26:45;0.90;99.90
29413;DHT22;16389;50.126;8.450;2023-03-01T01:29:11;0.90;99.90
29413;DHT22;16389;50.126;8.450;2023-03-01T01:31:39;0.90;99.90
29413;DHT22;16389;50.126;8.450;2023-03-01T01:34:06;1.00;99.90
29413;DHT22;16389;50.126;8.450;2023-03-01T01:36:33;1.00;99.90
29413;DHT22;16389;50.126;8.450;2023-03-01T01:38:59;1.00;99.90
29413;DHT22;16389;50.126;8.450;2023-03-01T01:41:26;1.00;99.90
29413;DHT22;16389;50.126;8.450;2023-03-01T01:44:13;1.00;99.90
29413;DHT22;16389;50.126;8.450;2023-03-01T01:46:56;1.00;99.90
29413;DHT22;16389;50.126;8.450;2023-03-01T01:52:22;1.10;99.90
29413;DHT22;16389;50.126;8.450;2023-03-01T01:55:14;1.10;99.90
29413;DHT22;16389;50.126;8.450;2023-03-01T01:57:59;1.20;99.90
29413;DHT22;16389;50.126;8.450;2023-03-01T02:00:29;1.10;99.90
29413;DHT22;16389;50.126;8.450;2023-03-01T02:03:01;1.20;99.90
29413;DHT22;16389;50.126;8.450;2023-03-01T02:05:49;1.10;99.90
29413;DHT22;16389;50.126;8.450;2023-03-01T02:08:18;1.20;99.90
29413;DHT22;16389;50.126;8.450;2023-03-01T02:10:45;1.20;99.90
29413;DHT22;16389;50.126;8.450;2023-03-01T02:13:11;1.20;99.90
29413;DHT22;16389;50.126;8.450;2023-03-01T02:15:38;1.30;99.90
29413;DHT22;16389;50.126;8.450;2023-03-01T02:18:06;1.20;99.90
29413;DHT22;16389;50.126;8.450;2023-03-01T02:23:03;1.30;99.90
29413;DHT22;16389;50.126;8.450;2023-03-01T02:28:02;1.20;99.90
29413;DHT22;16389;50.126;8.450;2023-03-01T02:30:31;1.30;99.90
29413;DHT22;16389;50.126;8.450;2023-03-01T02:32:59;1.30;99.90
29413;DHT22;16389;50.126;8.450;2023-03-01T02:35:30;1.30;99.90
29413;DHT22;16389;50.126;8.450;2023-03-01T02:37:57;1.40;99.90
29413;DHT22;16389;50.126;8.450;2023-03-01T02:40:30;1.40;99.90
29413;DHT22;16389;50.126;8.450;2023-03-01T02:42:58;1.30;99.90
29413;DHT22;16389;50.126;8.450;2023-03-01T02:45:25;1.30;99.90
29413;DHT22;16389;50.126;8.450;2023-03-01T02:47:54;1.30;99.90
29413;DHT22;16389;50.126;8.450;2023-03-01T02:53:21;1.20;99.90
29413;DHT22;16389;50.126;8.450;2023-03-01T02:55:51;1.20;99.90
29413;DHT22;16389;50.126;8.450;2023-03-01T02:58:16;1.30;99.90
29413;DHT22;16389;50.126;8.450;2023-03-01T03:00:42;1.30;99.90
29413;DHT22;16389;50.126;8.450;2023-03-01T03:03:21;1.30;99.90
29413;DHT22;16389;50.126;8.450;2023-03-01T03:05:47;1.30;99.90
29413;DHT22;16389;50.126;8.450;2023-03-01T03:08:14;1.30;99.90
29413;DHT22;16389;50.126;8.450;2023-03-01T03:10:49;1.30;99.90
29413;DHT22;16389;50.126;8.450;2023-03-01T03:13:15;1.30;99.90
29413;DHT22;16389;50.126;8.450;2023-03-01T03:15:41;1.30;99.90
29413;DHT22;16389;50.126;8.450;2023-03-01T03:18:10;1.30;99.90
29413;DHT22;16389;50.126;8.450;2023-03-01T03:20:36;1.30;99.90
29413;DHT22;16389;50.126;8.450;2023-03-01T03:23:03;1.30;99.90
29413;DHT22;16389;50.126;8.450;2023-03-01T03:25:29;1.30;99.90
29413;DHT22;16389;50.126;8.450;2023-03-01T03:27:56;1.30;99.90
29413;DHT22;16389;50.126;8.450;2023-03-01T03:30:27;1.20;99.90
29413;DHT22;16389;50.126;8.450;2023-03-01T03:32:53;1.20;99.90
29413;DHT22;16389;50.126;8.450;2023-03-01T03:35:31;1.20;99.90
29413;DHT22;16389;50.126;8.450;2023-03-01T03:37:59;1.30;99.90
29413;DHT22;16389;50.126;8.450;2023-03-01T03:40:37;1.20;99.90
29413;DHT22;16389;50.126;8.450;2023-03-01T03:43:05;1.20;99.90
29413;DHT22;16389;50.126;8.450;2023-03-01T03:45:31;1.20;99.90
29413;DHT22;16389;50.126;8.450;2023-03-01T03:47:59;1.10;99.90
29413;DHT22;16389;50.126;8.450;2023-03-01T03:50:25;1.10;99.90
29413;DHT22;16389;50.126;8.450;2023-03-01T03:52:51;1.20;99.90
29413;DHT22;16389;50.126;8.450;2023-03-01T03:55:17;1.10;99.90
29413;DHT22;16389;50.126;8.450;2023-03-01T03:57:45;1.20;99.90
29413;DHT22;16389;50.126;8.450;2023-03-01T04:00:18;1.20;99.90
29413;DHT22;16389;50.126;8.450;2023-03-01T04:02:45;1.10;99.90
29413;DHT22;16389;50.126;8.450;2023-03-01T04:05:13;1.10;99.90
29413;DHT22;16389;50.126;8.450;2023-03-01T04:07:40;1.10;99.90
29413;DHT22;16389;50.126;8.450;2023-03-01T04:10:08;1.10;99.90
29413;DHT22;16389;50.126;8.450;2023-03-01T04:12:34;1.00;99.90
29413;DHT22;16389;50.126;8.450;2023-03-01T04:15:01;1.00;99.90
29413;DHT22;16389;50.126;8.450;2023-03-01T04:17:38;1.00;99.90
29413;DHT22;16389;50.126;8.450;2023-03-01T04:20:05;1.00;99.90
29413;DHT22;16389;50.126;8.450;2023-03-01T04:22:31;1.00;99.90
29413;DHT22;16389;50.126;8.450;2023-03-01T04:24:57;1.00;99.90
29413;DHT22;16389;50.126;8.450;2023-03-01T04:27:23;1.00;99.90
29413;DHT22;16389;50.126;8.450;2023-03-01T04:29:49;1.00;99.90
29413;DHT22;16389;50.126;8.450;2023-03-01T04:32:14;1.00;99.90
29413;DHT22;16389;50.126;8.450;2023-03-01T04:34:41;1.00;99.90
29413;DHT22;16389;50.126;8.450;2023-03-01T04:37:07;1.00;99.90
29413;DHT22;16389;50.126;8.450;2023-03-01T04:39:34;1.00;99.90
29413;DHT22;16389;50.126;8.450;2023-03-01T04:42:13;1.00;99.90
29413;DHT22;16389;50.126;8.450;2023-03-01T04:44:39;1.00;99.90
29413;DHT22;16389;50.126;8.450;2023-03-01T04:47:05;1.00;99.90
29413;DHT22;16389;50.126;8.450;2023-03-01T04:49:31;0.90;99.90
29413;DHT22;16389;50.126;8.450;2023-03-01T04:51:57;1.00;99.90
29413;DHT22;16389;50.126;8.450;2023-03-01T04:54:27;1.00;99.90
29413;DHT22;16389;50.126;8.450;2023-03-01T04:56:54;0.90;99.90
29413;DHT22;16389;50.126;8.450;2023-03-01T04:59:19;0.90;99.90
29413;DHT22;16389;50.126;8.450;2023-03-01T05:01:51;0.90;99.90
29413;DHT22;16389;50.126;8.450;2023-03-01T05:04:17;0.80;99.90
29413;DHT22;16389;50.126;8.450;2023-03-01T05:06:43;0.70;99.90
29413;DHT22;16389;50.126;8.450;2023-03-01T05:09:09;0.80;99.90
29413;DHT22;16389;50.126;8.450;2023-03-01T05:11:36;0.80;99.90
29413;DHT22;16389;50.126;8.450;2023-03-01T05:14:03;0.70;99.90
29413;DHT22;16389;50.126;8.450;2023-03-01T05:16:29;0.70;99.90
29413;DHT22;16389;50.126;8.450;2023-03-01T05:18:57;0.80;99.90
29413;DHT22;16389;50.126;8.450;2023-03-01T05:21:22;0.70;99.90
29413;DHT22;16389;50.126;8.450;2023-03-01T05:23:48;0.80;99.90
29413;DHT22;16389;50.126;8.450;2023-03-01T05:26:15;0.80;99.90
29413;DHT22;16389;50.126;8.450;2023-03-01T05:28:43;0.80;99.90
29413;DHT22;16389;50.126;8.450;2023-03-01T05:31:08;0.90;99.90
29413;DHT22;16389;50.126;8.450;2023-03-01T05:33:37;0.90;99.90
29413;DHT22;16389;50.126;8.450;2023-03-01T05:36:04;1.00;99.90
29413;DHT22;16389;50.126;8.450;2023-03-01T05:38:29;1.10;99.90
29413;DHT22;16389;50.126;8.450;2023-03-01T05:40:55;1.10;99.90
29413;DHT22;16389;50.126;8.450;2023-03-01T05:43:21;1.10;99.90
29413;DHT22;16389;50.126;8.450;2023-03-01T05:45:47;1.10;99.90
29413;DHT22;16389;50.126;8.450;2023-03-01T05:48:13;1.10;99.90
29413;DHT22;16389;50.126;8.450;2023-03-01T05:50:43;1.10;99.90
29413;DHT22;16389;50.126;8.450;2023-03-01T05:53:18;1.10;99.90
29413;DHT22;16389;50.126;8.450;2023-03-01T05:55:46;1.10;99.90
29413;DHT22;16389;50.126;8.450;2023-03-01T05:58:17;1.10;99.90
29413;DHT22;16389;50.126;8.450;2023-03-01T06:00:44;1.20;99.90
29413;DHT22;16389;50.126;8.450;2023-03-01T06:03:12;1.20;99.90
29413;DHT22;16389;50.126;8.450;2023-03-01T06:05:38;1.20;99.90
29413;DHT22;16389;50.126;8.450;2023-03-01T06:08:04;1.30;99.90
29413;DHT22;16389;50.126;8.450;2023-03-01T06:10:30;1.20;99.90
29413;DHT22;16389;50.126;8.450;2023-03-01T06:12:56;1.20;99.90
29413;DHT22;16389;50.126;8.450;2023-03-01T06:15:22;1.30;99.90
29413;DHT22;16389;50.126;8.450;2023-03-01T06:17:48;1.30;99.90
29413;DHT22;16389;50.126;8.450;2023-03-01T06:22:42;1.30;99.90
29413;DHT22;16389;50.126;8.450;2023-03-01T06:25:08;1.30;99.90
29413;DHT22;16389;50.126;8.450;2023-03-01T06:27:35;1.30;99.90
29413;DHT22;16389;50.126;8.450;2023-03-01T06:30:00;1.40;99.90
29413;DHT22;16389;50.126;8.450;2023-03-01T06:32:26;1.40;99.90
29413;DHT22;16389;50.126;8.450;2023-03-01T06:34:52;1.40;99.90
29413;DHT22;16389;50.126;8.450;2023-03-01T06:37:18;1.40;99.90
29413;DHT22;16389;50.126;8.450;2023-03-01T06:39:43;1.40;99.90
29413;DHT22;16389;50.126;8.450;2023-03-01T06:42:09;1.40;99.90
29413;DHT22;16389;50.126;8.450;2023-03-01T06:44:38;1.40;99.90
29413;DHT22;16389;50.126;8.450;2023-03-01T06:47:04;1.30;99.90
29413;DHT22;16389;50.126;8.450;2023-03-01T06:49:30;1.30;99.90
29413;DHT22;16389;50.126;8.450;2023-03-01T06:51:56;1.30;99.90
29413;DHT22;16389;50.126;8.450;2023-03-01T06:54:22;1.20;99.90
29413;DHT22;16389;50.126;8.450;2023-03-01T06:56:49;1.30;99.90
29413;DHT22;16389;50.126;8.450;2023-03-01T06:59:15;1.20;99.90
29413;DHT22;16389;50.126;8.450;2023-03-01T07:01:41;1.20;99.90
29413;DHT22;16389;50.126;8.450;2023-03-01T07:04:07;1.30;99.90
29413;DHT22;16389;50.126;8.450;2023-03-01T07:06:33;1.30;99.90
29413;DHT22;16389;50.126;8.450;2023-03-01T07:08:59;1.30;99.90
29413;DHT22;16389;50.126;8.450;2023-03-01T07:11:24;1.40;99.90
29413;DHT22;16389;50.126;8.450;2023-03-01T07:13:50;1.50;99.90
29413;DHT22;16389;50.126;8.450;2023-03-01T07:16:16;1.60;99.90
29413;DHT22;16389;50.126;8.450;2023-03-01T07:18:42;1.60;99.90
29413;DHT22;16389;50.126;8.450;2023-03-01T07:21:08;1.70;99.90
29413;DHT22;16389;50.126;8.450;2023-03-01T07:23:34;1.80;99.90
29413;DHT22;16389;50.126;8.450;2023-03-01T07:26:00;2.00;99.90
29413;DHT22;16389;50.126;8.450;2023-03-01T07:28:26;2.10;99.90
29413;DHT22;16389;50.126;8.450;2023-03-01T07:30:53;2.20;99.90
29413;DHT22;16389;50.126;8.450;2023-03-01T07:33:18;2.30;99.90
29413;DHT22;16389;50.126;8.450;2023-03-01T07:35:44;2.40;99.90
29413;DHT22;16389;50.126;8.450;2023-03-01T07:38:10;2.50;99.90
29413;DHT22;16389;50.126;8.450;2023-03-01T07:40:35;2.60;99.90
29413;DHT22;16389;50.126;8.450;2023-03-01T07:43:01;2.70;99.90
29413;DHT22;16389;50.126;8.450;2023-03-01T07:45:27;2.80;99.90
29413;DHT22;16389;50.126;8.450;2023-03-01T07:47:54;3.00;99.90
29413;DHT22;16389;50.126;8.450;2023-03-01T07:50:20;3.00;99.90
29413;DHT22;16389;50.126;8.450;2023-03-01T07:52:46;3.10;99.90
29413;DHT22;16389;50.126;8.450;2023-03-01T07:55:12;3.20;99.90
29413;DHT22;16389;50.126;8.450;2023-03-01T07:57:38;3.30;99.90
29413;DHT22;16389;50.126;8.450;2023-03-01T08:00:04;3.30;99.90
29413;DHT22;16389;50.126;8.450;2023-03-01T08:02:31;3.50;99.90
29413;DHT22;16389;50.126;8.450;2023-03-01T08:04:56;3.40;99.90
29413;DHT22;16389;50.126;8.450;2023-03-01T08:07:22;3.40;99.90
29413;DHT22;16389;50.126;8.450;2023-03-01T08:09:48;3.50;99.90
29413;DHT22;16389;50.126;8.450;2023-03-01T08:12:13;3.60;99.90
29413;DHT22;16389;50.126;8.450;2023-03-01T08:14:39;3.70;99.90
29413;DHT22;16389;50.126;8.450;2023-03-01T08:17:05;3.70;99.90
29413;DHT22;16389;50.126;8.450;2023-03-01T08:19:30;3.70;99.90
29413;DHT22;16389;50.126;8.450;2023-03-01T08:21:56;3.70;99.90
29413;DHT22;16389;50.126;8.450;2023-03-01T08:24:23;3.70;99.90
29413;DHT22;16389;50.126;8.450;2023-03-01T08:26:49;3.70;99.90
29413;DHT22;16389;50.126;8.450;2023-03-01T08:29:15;3.70;99.90
29413;DHT22;16389;50.126;8.450;2023-03-01T08:31:40;3.80;99.90
29413;DHT22;16389;50.126;8.450;2023-03-01T08:34:09;3.90;99.90
29413;DHT22;16389;50.126;8.450;2023-03-01T08:36:37;4.00;99.90
29413;DHT22;16389;50.126;8.450;2023-03-01T08:39:03;4.20;99.90
29413;DHT22;16389;50.126;8.450;2023-03-01T08:41:30;4.30;99.90
29413;DHT22;16389;50.126;8.450;2023-03-01T08:43:56;4.40;99.90
29413;DHT22;16389;50.126;8.450;2023-03-01T08:46:36;4.50;99.90
29413;DHT22;16389;50.126;8.450;2023-03-01T08:49:10;4.70;99.90
29413;DHT22;16389;50.126;8.450;2023-03-01T08:51:37;4.80;99.90
29413;DHT22;16389;50.126;8.450;2023-03-01T08:54:10;4.90;99.90
29413;DHT22;16389;50.126;8.450;2023-03-01T08:56:36;4.90;99.90
29413;DHT22;16389;50.126;8.450;2023-03-01T08:59:02;4.90;99.90
29413;DHT22;16389;50.126;8.450;2023-03-01T09:01:28;5.00;99.90
29413;DHT22;16389;50.126;8.450;2023-03-01T09:03:53;5.20;99.90
29413;DHT22;16389;50.126;8.450;2023-03-01T09:06:19;5.20;99.90
29413;DHT22;16389;50.126;8.450;2023-03-01T09:08:49;5.20;99.90
29413;DHT22;16389;50.126;8.450;2023-03-01T09:11:16;5.30;99.90
29413;DHT22;16389;50.126;8.450;2023-03-01T09:13:43;5.40;99.90
29413;DHT22;16389;50.126;8.450;2023-03-01T09:16:10;5.40;99.90
29413;DHT22;16389;50.126;8.450;2023-03-01T09:18:35;5.50;99.90
29413;DHT22;16389;50.126;8.450;2023-03-01T09:21:09;5.50;99.90
29413;DHT22;16389;50.126;8.450;2023-03-01T09:23:37;5.60;99.80
29413;DHT22;16389;50.126;8.450;2023-03-01T09:26:08;5.70;99.50
29413;DHT22;16389;50.126;8.450;2023-03-01T09:28:40;6.00;99.30
29413;DHT22;16389;50.126;8.450;2023-03-01T09:31:10;6.00;98.50
29413;DHT22;16389;50.126;8.450;2023-03-01T09:33:38;6.10;98.20
29413;DHT22;16389;50.126;8.450;2023-03-01T09:36:06;6.10;98.20
29413;DHT22;16389;50.126;8.450;2023-03-01T09:38:33;6.20;98.20
29413;DHT22;16389;50.126;8.450;2023-03-01T09:41:00;6.50;98.00
29413;DHT22;16389;50.126;8.450;2023-03-01T09:43:44;6.40;97.70
29413;DHT22;16389;50.126;8.450;2023-03-01T09:46:13;6.60;97.40
29413;DHT22;16389;50.126;8.450;2023-03-01T09:48:55;6.70;96.80
29413;DHT22;16389;50.126;8.450;2023-03-01T09:51:33;6.70;96.70
29413;DHT22;16389;50.126;8.450;2023-03-01T09:54:01;6.70;96.70
29413;DHT22;16389;50.126;8.450;2023-03-01T09:56:34;6.70;97.40
29413;DHT22;16389;50.126;8.450;2023-03-01T10:09:41;7.40;96.10
29413;DHT22;16389;50.126;8.450;2023-03-01T10:12:15;7.50;95.70
29413;DHT22;16389;50.126;8.450;2023-03-01T10:17:30;7.80;95.10
29413;DHT22;16389;50.126;8.450;2023-03-01T10:20:23;7.90;94.60
29413;DHT22;16389;50.126;8.450;2023-03-01T10:22:50;7.90;94.50
29413;DHT22;16389;50.126;8.450;2023-03-01T10:28:30;8.10;94.00
29413;DHT22;16389;50.126;8.450;2023-03-01T10:30:59;8.20;93.80
29413;DHT22;16389;50.126;8.450;2023-03-01T10:33:29;8.40;93.40
29413;DHT22;16389;50.126;8.450;2023-03-01T10:35:55;8.30;93.10
29413;DHT22;16389;50.126;8.450;2023-03-01T10:38:21;8.30;93.00
29413;DHT22;16389;50.126;8.450;2023-03-01T10:43:26;8.40;92.70
29413;DHT22;16389;50.126;8.450;2023-03-01T10:45:53;8.30;92.70
29413;DHT22;16389;50.126;8.450;2023-03-01T10:48:26;8.30;92.00
29413;DHT22;16389;50.126;8.450;2023-03-01T10:53:41;8.40;92.90
29413;DHT22;16389;50.126;8.450;2023-03-01T10:56:10;8.70;92.20
29413;DHT22;16389;50.126;8.450;2023-03-01T10:58:38;8.70;91.60
29413;DHT22;16389;50.126;8.450;2023-03-01T11:03:41;9.10;91.00
29413;DHT22;16389;50.126;8.450;2023-03-01T11:08:41;9.80;90.40
29413;DHT22;16389;50.126;8.450;2023-03-01T11:11:29;10.40;88.80
29413;DHT22;16389;50.126;8.450;2023-03-01T11:14:23;10.90;87.30
29413;DHT22;16389;50.126;8.450;2023-03-01T11:17:05;11.60;84.80
29413;DHT22;16389;50.126;8.450;2023-03-01T11:19:32;11.90;82.30
29413;DHT22;16389;50.126;8.450;2023-03-01T11:22:12;12.40;80.30
29413;DHT22;16389;50.126;8.450;2023-03-01T11:24:45;12.60;79.20
29413;DHT22;16389;50.126;8.450;2023-03-01T11:27:19;12.70;77.60
29413;DHT22;16389;50.126;8.450;2023-03-01T11:30:32;13.00;76.50
29413;DHT22;16389;50.126;8.450;2023-03-01T11:32:46;13.70;75.30
29413;DHT22;16389;50.126;8.450;2023-03-01T11:37:59;14.60;70.90
29413;DHT22;16389;50.126;8.450;2023-03-01T11:40:33;14.80;68.80
29413;DHT22;16389;50.126;8.450;2023-03-01T11:48:50;16.60;63.50
29413;DHT22;16389;50.126;8.450;2023-03-01T12:00:06;18.60;57.20
29413;DHT22;16389;50.126;8.450;2023-03-01T12:02:56;19.30;55.30
29413;DHT22;16389;50.126;8.450;2023-03-01T12:22:19;20.30;48.20
29413;DHT22;16389;50.126;8.450;2023-03-01T12:24:59;20.30;48.90
29413;DHT22;16389;50.126;8.450;2023-03-01T12:35:55;19.20;48.90
29413;DHT22;16389;50.126;8.450;2023-03-01T12:38:42;18.60;49.90
29413;DHT22;16389;50.126;8.450;2023-03-01T12:49:53;13.00;57.60
29413;DHT22;16389;50.126;8.450;2023-03-01T12:55:01;11.00;63.80
29413;DHT22;16389;50.126;8.450;2023-03-01T12:57:39;10.50;64.90
29413;DHT22;16389;50.126;8.450;2023-03-01T13:00:28;10.00;66.80
29413;DHT22;16389;50.126;8.450;2023-03-01T13:06:12;9.30;68.00
29413;DHT22;16389;50.126;8.450;2023-03-01T13:08:48;9.20;69.00
29413;DHT22;16389;50.126;8.450;2023-03-01T13:11:20;8.90;69.20
29413;DHT22;16389;50.126;8.450;2023-03-01T13:13:47;8.80;70.20
29413;DHT22;16389;50.126;8.450;2023-03-01T13:16:40;8.70;71.20
29413;DHT22;16389;50.126;8.450;2023-03-01T13:19:11;8.60;72.00
29413;DHT22;16389;50.126;8.450;2023-03-01T13:21:38;8.50;72.00
29413;DHT22;16389;50.126;8.450;2023-03-01T13:24:09;8.40;72.90
29413;DHT22;16389;50.126;8.450;2023-03-01T13:29:50;8.30;74.80
29413;DHT22;16389;50.126;8.450;2023-03-01T13:34:53;8.40;75.60
29413;DHT22;16389;50.126;8.450;2023-03-01T13:37:25;8.30;75.60
29413;DHT22;16389;50.126;8.450;2023-03-01T13:39:52;8.20;75.40
29413;DHT22;16389;50.126;8.450;2023-03-01T13:42:38;8.10;76.30
29413;DHT22;16389;50.126;8.450;2023-03-01T13:45:16;8.00;76.40
29413;DHT22;16389;50.126;8.450;2023-03-01T13:47:43;8.00;76.40
29413;DHT22;16389;50.126;8.450;2023-03-01T13:50:23;8.00;76.50
29413;DHT22;16389;50.126;8.450;2023-03-01T13:52:59;8.00;76.80
29413;DHT22;16389;50.126;8.450;2023-03-01T13:55:38;8.10;77.50
29413;DHT22;16389;50.126;8.450;2023-03-01T13:58:19;8.00;77.80
29413;DHT22;16389;50.126;8.450;2023-03-01T14:00:46;8.00;77.20
29413;DHT22;16389;50.126;8.450;2023-03-01T14:03:17;8.00;77.50
29413;DHT22;16389;50.126;8.450;2023-03-01T14:08:28;7.90;77.40
29413;DHT22;16389;50.126;8.450;2023-03-01T14:16:34;8.00;77.30
29413;DHT22;16389;50.126;8.450;2023-03-01T14:19:26;7.90;77.00
29413;DHT22;16389;50.126;8.450;2023-03-01T14:22:24;7.90;78.90
29413;DHT22;16389;50.126;8.450;2023-03-01T14:24:59;7.90;77.80
29413;DHT22;16389;50.126;8.450;2023-03-01T14:27:38;7.90;77.80
29413;DHT22;16389;50.126;8.450;2023-03-01T14:30:24;7.80;78.00
29413;DHT22;16389;50.126;8.450;2023-03-01T14:32:56;7.80;78.00
29413;DHT22;16389;50.126;8.450;2023-03-01T14:35:25;7.90;78.50
29413;DHT22;16389;50.126;8.450;2023-03-01T14:37:51;7.90;78.20
29413;DHT22;16389;50.126;8.450;2023-03-01T14:40:36;8.00;78.20
29413;DHT22;16389;50.126;8.450;2023-03-01T14:43:09;7.90;78.50
29413;DHT22;16389;50.126;8.450;2023-03-01T14:45:36;7.90;78.50
29413;DHT22;16389;50.126;8.450;2023-03-01T14:48:04;8.00;78.50
29413;DHT22;16389;50.126;8.450;2023-03-01T14:50:33;7.90;78.50
29413;DHT22;16389;50.126;8.450;2023-03-01T14:53:04;7.90;79.10
29413;DHT22;16389;50.126;8.450;2023-03-01T14:55:53;7.90;78.50
29413;DHT22;16389;50.126;8.450;2023-03-01T14:58:24;7.90;78.80
29413;DHT22;16389;50.126;8.450;2023-03-01T15:00:56;7.90;78.90
29413;DHT22;16389;50.126;8.450;2023-03-01T15:03:43;7.90;78.70
29413;DHT22;16389;50.126;8.450;2023-03-01T15:06:10;7.90;78.40
29413;DHT22;16389;50.126;8.450;2023-03-01T15:08:42;8.00;78.30
29413;DHT22;16389;50.126;8.450;2023-03-01T15:11:19;8.00;78.20
29413;DHT22;16389;50.126;8.450;2023-03-01T15:13:47;7.90;78.00
29413;DHT22;16389;50.126;8.450;2023-03-01T15:16:30;7.90;78.30
29413;DHT22;16389;50.126;8.450;2023-03-01T15:18:58;7.80;78.20
29413;DHT22;16389;50.126;8.450;2023-03-01T15:21:27;7.90;78.10
29413;DHT22;16389;50.126;8.450;2023-03-01T15:23:56;8.00;78.20
29413;DHT22;16389;50.126;8.450;2023-03-01T15:26:43;8.10;79.20
29413;DHT22;16389;50.126;8.450;2023-03-01T15:29:20;8.30;77.70
29413;DHT22;16389;50.126;8.450;2023-03-01T15:32:01;8.40;78.00
29413;DHT22;16389;50.126;8.450;2023-03-01T15:34:32;8.40;77.80
29413;DHT22;16389;50.126;8.450;2023-03-01T15:37:00;8.80;77.00
29413;DHT22;16389;50.126;8.450;2023-03-01T15:39:40;10.10;76.10
29413;DHT22;16389;50.126;8.450;2023-03-01T15:45:21;12.40;68.90
29413;DHT22;16389;50.126;8.450;2023-03-01T15:48:36;12.40;67.60
29413;DHT22;16389;50.126;8.450;2023-03-01T15:50:38;11.70;67.70
29413;DHT22;16389;50.126;8.450;2023-03-01T15:53:08;10.90;69.30
29413;DHT22;16389;50.126;8.450;2023-03-01T15:55:36;10.20;71.00
29413;DHT22;16389;50.126;8.450;2023-03-01T15:58:23;9.60;72.80
29413;DHT22;16389;50.126;8.450;2023-03-01T16:00:49;8.90;74.90
29413;DHT22;16389;50.126;8.450;2023-03-01T16:03:21;8.40;76.60
29413;DHT22;16389;50.126;8.450;2023-03-01T16:05:48;8.00;77.90
29413;DHT22;16389;50.126;8.450;2023-03-01T16:08:14;7.80;78.70
29413;DHT22;16389;50.126;8.450;2023-03-01T16:10:41;7.60;80.70
29413;DHT22;16389;50.126;8.450;2023-03-01T16:13:09;7.30;81.20
29413;DHT22;16389;50.126;8.450;2023-03-01T16:15:35;7.10;81.90
29413;DHT22;16389;50.126;8.450;2023-03-01T16:18:01;7.10;82.10
29413;DHT22;16389;50.126;8.450;2023-03-01T16:20:28;6.90;82.80
29413;DHT22;16389;50.126;8.450;2023-03-01T16:22:58;6.80;83.30
29413;DHT22;16389;50.126;8.450;2023-03-01T16:25:28;6.60;83.30
29413;DHT22;16389;50.126;8.450;2023-03-01T16:27:54;6.50;83.70
29413;DHT22;16389;50.126;8.450;2023-03-01T16:30:22;6.50;84.50
29413;DHT22;16389;50.126;8.450;2023-03-01T16:32:48;6.40;84.70
29413;DHT22;16389;50.126;8.450;2023-03-01T16:35:17;6.30;84.60
29413;DHT22;16389;50.126;8.450;2023-03-01T16:37:43;6.30;84.70
29413;DHT22;16389;50.126;8.450;2023-03-01T16:40:26;6.20;84.60
29413;DHT22;16389;50.126;8.450;2023-03-01T16:42:53;6.10;85.20
29413;DHT22;16389;50.126;8.450;2023-03-01T16:45:20;6.00;84.80
29413;DHT22;16389;50.126;8.450;2023-03-01T16:47:46;5.90;85.10
29413;DHT22;16389;50.126;8.450;2023-03-01T16:50:12;5.90;86.10
29413;DHT22;16389;50.126;8.450;2023-03-01T16:52:37;5.90;86.70
29413;DHT22;16389;50.126;8.450;2023-03-01T16:55:06;5.80;86.30
29413;DHT22;16389;50.126;8.450;2023-03-01T16:57:34;5.80;86.80
29413;DHT22;16389;50.126;8.450;2023-03-01T17:00:00;5.70;85.90
29413;DHT22;16389;50.126;8.450;2023-03-01T17:02:25;5.60;87.10
29413;DHT22;16389;50.126;8.450;2023-03-01T17:04:55;5.60;86.70
29413;DHT22;16389;50.126;8.450;2023-03-01T17:07:21;5.50;86.60
29413;DHT22;16389;50.126;8.450;2023-03-01T17:09:47;5.40;86.30
29413;DHT22;16389;50.126;8.450;2023-03-01T17:12:13;5.40;87.00
29413;DHT22;16389;50.126;8.450;2023-03-01T17:14:40;5.30;86.90
29413;DHT22;16389;50.126;8.450;2023-03-01T17:17:10;5.30;86.40
29413;DHT22;16389;50.126;8.450;2023-03-01T17:19:37;5.30;86.40
29413;DHT22;16389;50.126;8.450;2023-03-01T17:22:09;5.30;86.70
29413;DHT22;16389;50.126;8.450;2023-03-01T17:24:37;5.20;86.50
29413;DHT22;16389;50.126;8.450;2023-03-01T17:27:03;5.20;86.70
29413;DHT22;16389;50.126;8.450;2023-03-01T17:29:29;5.10;86.90
29413;DHT22;16389;50.126;8.450;2023-03-01T17:31:55;5.10;86.80
29413;DHT22;16389;50.126;8.450;2023-03-01T17:34:22;5.00;86.80
29413;DHT22;16389;50.126;8.450;2023-03-01T17:36:48;5.00;87.00
29413;DHT22;16389;50.126;8.450;2023-03-01T17:39:15;5.00;86.40
29413;DHT22;16389;50.126;8.450;2023-03-01T17:41:41;4.90;87.00
29413;DHT22;16389;50.126;8.450;2023-03-01T17:44:07;4.90;86.90
29413;DHT22;16389;50.126;8.450;2023-03-01T17:46:33;4.90;87.70
29413;DHT22;16389;50.126;8.450;2023-03-01T17:48:58;4.80;87.30
29413;DHT22;16389;50.126;8.450;2023-03-01T17:51:24;4.80;87.60
29413;DHT22;16389;50.126;8.450;2023-03-01T17:53:50;4.80;87.70